Hallsville, MO (65255)

8:53 PM CDT on September 29, 2016 (GMT -0500)
Rolling Hills | | Change Station

Elev 863 ft 39.16 °N, 92.19 °W | Updated 1 second ago

Mostly Cloudy
Mostly Cloudy
64.8 °F
Feels Like 64.8 °F
N
2.0
Wind Variable Wind from NW
Gusts 4.0 mph

Today
High -- | Low -- °F
--% Chance of Precip.
Yesterday
High -- | Low -- °F
Precip. -- in
Pressure 30.20 in
Visibility 10.0 miles
Clouds Mostly Cloudy 7000 ft
Dew Point 52 °F
Humidity 64%
Rainfall 0.00 in
Snow Depth Not available.
7:03 AM 6:53 PM
Waning Crescent, 1% visible
METAR KCOU 300054Z 32007KT 10SM BKN070 18/11 A3021 RMK AO2 SLP227 T01830111
Pressure 30.20 in
Visibility 10.0 miles
Clouds Mostly Cloudy 7000 ft
Dew Point 52 °F
Humidity 64%
Rainfall 0.00 in
Snow Depth Not available.
7:03 AM 6:53 PM
Waning Crescent, 1% visible
METAR KCOU 300054Z 32007KT 10SM BKN070 18/11 A3021 RMK AO2 SLP227 T01830111

10-Day Weather Forecast

Almanac

Astronomy

Sep. 29, 2016 Rise Set
Actual Time
Civil Twilight
Nautical Twilight
Astronomical Twilight
Moon
Length of Visible Light
Length of Day
Tomorrow will be .
, % of the Moon is Illuminated

Today's Extremes

State Highs State Lows

Community

WunderPhotos

Upload Photos

1,942,628 photos uploaded!

WunderBlog® & News

Nearby

Air Quality

  Air Quality AQ Index Pollutant
Not available.

Snow Depth

Station Depth Elevation

Earthquake Activity

City Distance Mag. Time & Date
Minimum magnitude displayed is 2.5.

Coastal Water Temperatures

Place Temperature

Stations

Nearby Weather Stations

Station Location Temp. Windchill Dew Point Humidity Wind Precip. Elev Updated Type
                   

Watches & Warnings

There are currently no watches in effect.